Squirrel, Idaho
Current Conditions -  °F | °C
As of 10:56 AM on Friday 24 Oct 2014 (Local Time) from KDIJ Reporting Station
Few Clouds Few Clouds  
Wind Chill: 56°   Ceiling: Unl
Heat Index: 56°   Visibility: 10mi
Dew Point: 34°   Wind: 5mph
Humidity: 44%   Direction: 210°SSW
Pressure: 30.22"   Gusts: NA
Location:  44.03°N, 111.3°W
Report Text: KDIJ 241656Z AUTO 21004KT 10SM FEW080 13/01 A3022 RMK AO2 T01330011 SLP178
Loading
Personal Weather Stations






























Interactive Weather Map
Tropical Storm Tracking
New forecast layout! Learn more

10-Day Weather Forecast

Advertisements
Track Severe Weather on mobile